createdAt,value
2023-03-18T00:00:41.880Z,100588.97
2023-03-18T00:03:12.175Z,100586.28
2023-03-18T00:05:42.373Z,100594.19
2023-03-18T00:08:12.537Z,100596.78
2023-03-18T00:10:42.314Z,100597.59
2023-03-18T00:13:14.863Z,100604.56
2023-03-18T00:15:44.713Z,100604.56
2023-03-18T00:18:19.987Z,100599.22
2023-03-18T00:20:50.548Z,100601.84
2023-03-18T00:23:21.311Z,100612.34
2023-03-18T00:25:51.619Z,100610.53
2023-03-18T00:28:24.171Z,100601.75
2023-03-18T00:30:54.767Z,100603.50
2023-03-18T00:33:26.912Z,100603.44
2023-03-18T00:35:57.096Z,100602.56
2023-03-18T00:38:26.847Z,100604.25
2023-03-18T00:41:01.696Z,100605.13
2023-03-18T00:43:46.024Z,100602.50
2023-03-18T00:46:18.055Z,100615.69
2023-03-18T00:48:48.712Z,100615.63
2023-03-18T00:51:19.250Z,100613.00
2023-03-18T00:53:51.981Z,100613.03
2023-03-18T00:56:24.127Z,100611.25
2023-03-18T00:59:03.108Z,100618.25
2023-03-18T01:01:33.568Z,100623.53
2023-03-18T01:04:04.558Z,100622.66
2023-03-18T01:06:37.612Z,100635.78
2023-03-18T01:09:11.358Z,100627.75
2023-03-18T01:11:41.143Z,100624.13
2023-03-18T01:14:13.522Z,100628.44
2023-03-18T01:16:43.453Z,100624.00
2023-03-18T01:19:13.762Z,100626.63
2023-03-18T01:21:43.629Z,100619.59
2023-03-18T01:24:13.465Z,100634.47
2023-03-18T01:26:43.990Z,100625.63
2023-03-18T01:29:16.520Z,100627.22
2023-03-18T01:31:47.262Z,100628.88
2023-03-18T01:34:17.613Z,100631.47
2023-03-18T01:36:48.175Z,100634.00
2023-03-18T01:39:18.383Z,100626.91
2023-03-18T01:41:48.984Z,100615.47
2023-03-18T01:44:24.867Z,100615.38
2023-03-18T01:46:56.950Z,100616.19
2023-03-18T01:49:29.288Z,100616.13
2023-03-18T01:52:03.051Z,100619.53
2023-03-18T01:54:37.901Z,100614.16
2023-03-18T01:57:07.964Z,100630.75
2023-03-18T01:59:44.592Z,100629.75
2023-03-18T02:02:17.110Z,100625.19
2023-03-18T02:04:50.513Z,100645.28
2023-03-18T02:07:23.447Z,100640.75
2023-03-18T02:09:54.831Z,100638.00
2023-03-18T02:12:27.030Z,100638.75
2023-03-18T02:15:00.896Z,100625.50
2023-03-18T02:17:38.516Z,100630.75
2023-03-18T02:20:18.858Z,100640.28
2023-03-18T02:22:52.556Z,100638.44
2023-03-18T02:25:34.806Z,100644.50
2023-03-18T02:28:11.324Z,100646.25
2023-03-18T02:30:45.244Z,100641.75
2023-03-18T02:33:17.468Z,100637.28
2023-03-18T02:35:49.283Z,100645.25
2023-03-18T02:38:19.650Z,100640.81
2023-03-18T02:40:49.398Z,100637.28
2023-03-18T02:43:25.980Z,100645.19
2023-03-18T02:46:28.907Z,100638.97
2023-03-18T02:49:00.091Z,100635.44
2023-03-18T02:51:31.142Z,100644.09
2023-03-18T02:54:07.632Z,100642.25
2023-03-18T02:56:38.010Z,100647.44
2023-03-18T02:59:10.423Z,100652.63
2023-03-18T03:01:41.865Z,100650.88
2023-03-18T03:04:13.920Z,100659.56
2023-03-18T03:06:44.731Z,100663.88
2023-03-18T03:09:17.330Z,100675.19
2023-03-18T03:11:48.878Z,100670.69
2023-03-18T03:14:21.810Z,100674.97
2023-03-18T03:16:52.059Z,100669.56
2023-03-18T03:19:21.826Z,100675.56
2023-03-18T03:21:54.462Z,100672.91
2023-03-18T03:24:27.489Z,100664.00
2023-03-18T03:27:02.942Z,100674.50
2023-03-18T03:29:35.788Z,100672.66
2023-03-18T03:32:05.890Z,100681.28
2023-03-18T03:34:35.751Z,100685.72
2023-03-18T03:37:05.967Z,100689.25
2023-03-18T03:39:35.786Z,100694.50
2023-03-18T03:42:05.572Z,100700.59
2023-03-18T03:44:37.950Z,100701.44
2023-03-18T03:47:08.591Z,100708.38
2023-03-18T03:49:39.155Z,100710.03
2023-03-18T03:52:09.401Z,100707.34
2023-03-18T03:54:41.641Z,100715.16
2023-03-18T03:57:11.961Z,100718.66
2023-03-18T03:59:44.344Z,100714.25
2023-03-18T04:02:14.524Z,100720.34
2023-03-18T04:04:45.363Z,100724.53
2023-03-18T04:07:15.513Z,100728.03
2023-03-18T04:09:45.715Z,100738.47
2023-03-18T04:12:18.384Z,100740.16
2023-03-18T04:14:51.835Z,100741.88
2023-03-18T04:17:21.699Z,100736.50
2023-03-18T04:19:51.599Z,100737.41
2023-03-18T04:22:21.664Z,100741.78
2023-03-18T04:24:51.432Z,100750.59
2023-03-18T04:27:22.726Z,100754.13
2023-03-18T04:29:55.118Z,100755.00
2023-03-18T04:32:24.913Z,100767.19
2023-03-18T04:34:55.027Z,100762.69
2023-03-18T04:37:24.786Z,100756.44
2023-03-18T04:39:54.630Z,100772.97
2023-03-18T04:42:24.407Z,100771.22
2023-03-18T04:44:56.752Z,100765.00
2023-03-18T04:47:26.535Z,100751.78
2023-03-18T04:49:56.297Z,100761.44
2023-03-18T04:52:26.048Z,100760.47
2023-03-18T04:54:56.768Z,100763.06
2023-03-18T04:57:26.767Z,100767.31
2023-03-18T05:00:00.166Z,100762.84
2023-03-18T05:02:30.126Z,100773.31
2023-03-18T05:05:01.315Z,100772.34
2023-03-18T05:07:32.017Z,100776.66
2023-03-18T05:10:01.834Z,100780.97
2023-03-18T05:12:31.645Z,100779.09
2023-03-18T05:15:03.995Z,100772.03
2023-03-18T05:17:33.757Z,100775.50
2023-03-18T05:20:04.544Z,100780.81
2023-03-18T05:22:34.409Z,100780.03
2023-03-18T05:25:04.582Z,100780.06
2023-03-18T05:27:34.447Z,100779.19
2023-03-18T05:30:07.844Z,100773.03
2023-03-18T05:32:38.139Z,100775.72
2023-03-18T05:35:09.325Z,100777.63
2023-03-18T05:37:39.745Z,100789.97
2023-03-18T05:40:15.201Z,100790.03
2023-03-18T05:42:55.765Z,100796.22
2023-03-18T05:45:29.149Z,100795.38
2023-03-18T05:47:58.923Z,100807.75
2023-03-18T05:50:33.314Z,100799.00
2023-03-18T05:53:04.475Z,100805.22
2023-03-18T05:55:35.442Z,100814.94
2023-03-18T05:58:06.048Z,100818.50
2023-03-18T06:00:38.745Z,100816.72
2023-03-18T06:03:09.159Z,100822.88
2023-03-18T06:05:39.094Z,100827.28
2023-03-18T06:08:08.866Z,100835.28
2023-03-18T06:10:38.952Z,100841.44
2023-03-18T06:13:09.628Z,100840.53
2023-03-18T06:15:41.992Z,100835.25
2023-03-18T06:18:11.749Z,100836.13
2023-03-18T06:20:41.921Z,100843.94
2023-03-18T06:23:11.659Z,100848.38
2023-03-18T06:25:41.411Z,100850.16
2023-03-18T06:28:11.146Z,100847.59
2023-03-18T06:30:43.882Z,100862.56
2023-03-18T06:33:15.341Z,100857.41
2023-03-18T06:35:45.445Z,100856.56
2023-03-18T06:38:21.886Z,100859.38
2023-03-18T06:40:51.706Z,100857.72
2023-03-18T06:43:21.546Z,100857.81
2023-03-18T06:45:53.980Z,100865.78
2023-03-18T06:48:23.873Z,100859.66
2023-03-18T06:50:54.548Z,100860.63
2023-03-18T06:53:25.431Z,100864.19
2023-03-18T06:55:57.597Z,100870.41
2023-03-18T06:58:27.528Z,100877.44
2023-03-18T07:01:01.944Z,100880.06
2023-03-18T07:03:32.910Z,100881.84
2023-03-18T07:06:02.830Z,100887.97
2023-03-18T07:08:32.625Z,100885.44
2023-03-18T07:11:03.428Z,100888.19
2023-03-18T07:13:34.718Z,100890.84
2023-03-18T07:16:08.908Z,100884.00
2023-03-18T07:18:38.791Z,100890.16
2023-03-18T07:21:09.723Z,100888.50
2023-03-18T07:23:39.481Z,100885.03
2023-03-18T07:26:09.795Z,100892.13
2023-03-18T07:28:39.561Z,100893.97
2023-03-18T07:31:11.988Z,100894.06
2023-03-18T07:33:41.808Z,100890.69
2023-03-18T07:36:12.052Z,100892.59
2023-03-18T07:38:42.296Z,100890.91
2023-03-18T07:41:12.722Z,100882.38
2023-03-18T07:43:43.720Z,100887.19
2023-03-18T07:46:16.076Z,100886.75
2023-03-18T07:48:46.715Z,100900.38
2023-03-18T07:51:17.489Z,100910.50
2023-03-18T07:53:47.759Z,100916.88
2023-03-18T07:56:18.140Z,100916.22
2023-03-18T07:58:52.092Z,100911.94
2023-03-18T08:01:25.787Z,100917.28
2023-03-18T08:03:55.618Z,100915.59
2023-03-18T08:06:26.459Z,100920.13
2023-03-18T08:08:56.304Z,100911.44
2023-03-18T08:11:26.172Z,100917.78
2023-03-18T08:13:56.127Z,100924.13
2023-03-18T08:16:28.665Z,100921.72
2023-03-18T08:18:58.921Z,100925.38
2023-03-18T08:21:29.931Z,100929.94
2023-03-18T08:23:59.682Z,100927.44
2023-03-18T08:26:29.633Z,100936.38
2023-03-18T08:28:59.667Z,100945.28
2023-03-18T08:31:32.075Z,100944.50
2023-03-18T08:34:02.555Z,100956.06
2023-03-18T08:36:32.370Z,100958.72
2023-03-18T08:39:02.186Z,100955.25
2023-03-18T08:41:32.483Z,100952.63
2023-03-18T08:44:02.312Z,100954.47
2023-03-18T08:46:34.757Z,100951.94
2023-03-18T08:49:04.941Z,100959.06
2023-03-18T08:51:35.224Z,100949.53
2023-03-18T08:54:05.031Z,100959.28
2023-03-18T08:56:34.888Z,100957.56
2023-03-18T08:59:07.784Z,100950.56
2023-03-18T09:01:40.537Z,100949.88
2023-03-18T09:04:10.377Z,100947.38
2023-03-18T09:06:40.188Z,100942.25
2023-03-18T09:09:11.785Z,100946.78
2023-03-18T09:11:41.965Z,100953.00
2023-03-18T09:14:11.705Z,100953.13
2023-03-18T09:16:44.068Z,100945.28
2023-03-18T09:19:13.908Z,100945.34
2023-03-18T09:21:44.684Z,100942.78
2023-03-18T09:24:14.445Z,100944.59
2023-03-18T09:26:44.254Z,100936.75
2023-03-18T09:29:14.066Z,100936.78
2023-03-18T09:31:49.369Z,100932.47
2023-03-18T09:34:19.482Z,100942.22
2023-03-18T09:36:51.313Z,100951.97
2023-03-18T09:39:21.360Z,100953.72
2023-03-18T09:42:07.258Z,100953.03
2023-03-18T09:44:39.141Z,100959.25
2023-03-18T09:47:33.569Z,100961.06
2023-03-18T09:50:18.558Z,100952.34
2023-03-18T09:52:51.636Z,100963.84
2023-03-18T09:55:27.424Z,100973.59
2023-03-18T09:58:01.560Z,100973.66
2023-03-18T10:00:34.246Z,100978.94
2023-03-18T10:03:15.876Z,100980.69
2023-03-18T10:05:53.336Z,100984.22
2023-03-18T10:08:35.220Z,100987.75
2023-03-18T10:11:10.957Z,100990.53
2023-03-18T10:13:45.870Z,100982.69
2023-03-18T10:16:23.712Z,100977.53
2023-03-18T10:18:57.232Z,100976.88
2023-03-18T10:21:37.794Z,100980.53
2023-03-18T10:24:21.316Z,100973.66
2023-03-18T10:26:56.057Z,100981.81
2023-03-18T10:29:37.853Z,100983.84
2023-03-18T10:32:15.286Z,100984.06
2023-03-18T10:34:59.900Z,100985.94
2023-03-18T10:37:40.831Z,100991.44
2023-03-18T10:40:16.689Z,100985.44
2023-03-18T10:42:48.040Z,100990.06
2023-03-18T10:45:27.468Z,100991.31
2023-03-18T10:48:05.975Z,101000.34
2023-03-18T10:50:40.389Z,100993.56
2023-03-18T10:53:19.265Z,100994.59
2023-03-18T10:55:57.993Z,100999.19
2023-03-18T10:58:30.982Z,100994.97
2023-03-18T11:01:01.624Z,100996.00
2023-03-18T11:03:36.017Z,100992.63
2023-03-18T11:06:15.494Z,100984.81
2023-03-18T11:08:49.271Z,100987.59
2023-03-18T11:11:25.335Z,100990.41
2023-03-18T11:13:57.325Z,100989.66
2023-03-18T11:16:33.179Z,100990.63
2023-03-18T11:19:09.359Z,100991.63
2023-03-18T11:21:41.902Z,100985.53
2023-03-18T11:24:36.411Z,100992.69
2023-03-18T11:27:06.971Z,100997.13
2023-03-18T11:29:38.362Z,100990.19
2023-03-18T11:32:09.865Z,100991.09
2023-03-18T11:34:39.663Z,100990.25
2023-03-18T11:37:14.435Z,100982.38
2023-03-18T11:39:44.699Z,100984.13
2023-03-18T11:42:22.256Z,100992.13
2023-03-18T11:44:57.657Z,100997.47
2023-03-18T11:47:31.657Z,100991.28
2023-03-18T11:50:02.224Z,101000.09
2023-03-18T11:52:44.051Z,100988.59
2023-03-18T11:55:28.962Z,100998.34
2023-03-18T11:58:33.221Z,100989.63
2023-03-18T12:01:10.389Z,100996.88
2023-03-18T12:04:08.580Z,100992.66
2023-03-18T12:06:47.548Z,100994.56
2023-03-18T12:09:30.452Z,100999.09
2023-03-18T12:12:09.448Z,100997.41
2023-03-18T12:14:46.111Z,100990.47
2023-03-18T12:17:27.624Z,100989.66
2023-03-18T12:20:15.830Z,100986.19
2023-03-18T12:23:04.537Z,100988.84
2023-03-18T12:26:01.081Z,100989.84
2023-03-18T12:28:50.903Z,100979.25
2023-03-18T12:31:51.625Z,100990.78
2023-03-18T12:34:34.370Z,100986.41
2023-03-18T12:37:19.321Z,100987.31
2023-03-18T12:40:24.847Z,100986.50
2023-03-18T12:43:27.345Z,100973.25
2023-03-18T12:46:04.739Z,100989.19
2023-03-18T12:48:44.447Z,100987.41
2023-03-18T12:51:18.353Z,100987.41
2023-03-18T12:53:53.005Z,100976.78
2023-03-18T12:56:26.636Z,100979.47
2023-03-18T12:59:05.446Z,100973.28
2023-03-18T13:01:45.465Z,100974.16
2023-03-18T13:04:22.345Z,100980.28
2023-03-18T13:07:02.202Z,100981.16
2023-03-18T13:09:40.129Z,100977.59
2023-03-18T13:12:14.657Z,100978.47
2023-03-18T13:15:02.029Z,100969.66
2023-03-18T13:17:38.841Z,100981.19
2023-03-18T13:20:15.128Z,100979.47
2023-03-18T13:23:16.126Z,100974.16
2023-03-18T13:25:59.063Z,100987.41
2023-03-18T13:28:51.373Z,100988.31
2023-03-18T13:31:34.631Z,100989.19
2023-03-18T13:34:26.782Z,100984.75
2023-03-18T13:37:24.746Z,100990.97
2023-03-18T13:40:20.490Z,100994.53
2023-03-18T13:42:52.544Z,100982.13
2023-03-18T13:45:29.486Z,100980.38
2023-03-18T13:48:01.217Z,100983.06
2023-03-18T13:50:39.853Z,100978.66
2023-03-18T13:53:30.841Z,100975.13
2023-03-18T13:56:07.171Z,100970.69
2023-03-18T13:58:38.890Z,100961.81
2023-03-18T14:01:33.629Z,100967.13
2023-03-18T14:04:19.396Z,100968.91
2023-03-18T14:06:55.957Z,100967.13
2023-03-18T14:09:37.360Z,100960.94
2023-03-18T14:12:24.967Z,100964.47
2023-03-18T14:15:01.540Z,100959.13
2023-03-18T14:17:41.563Z,100952.06
2023-03-18T14:20:28.820Z,100951.16
2023-03-18T14:23:28.753Z,100953.81
2023-03-18T14:26:07.979Z,100957.34
2023-03-18T14:28:56.368Z,100955.53
2023-03-18T14:31:35.335Z,100956.41
2023-03-18T14:34:27.957Z,100953.75
2023-03-18T14:37:23.405Z,100956.38
2023-03-18T14:39:57.812Z,100952.84
2023-03-18T14:42:35.774Z,100954.59
2023-03-18T14:45:15.718Z,100950.13
2023-03-18T14:47:48.964Z,100953.69
2023-03-18T14:50:27.669Z,100955.44
2023-03-18T14:53:01.553Z,100952.78
2023-03-18T14:55:37.057Z,100956.38
2023-03-18T14:58:10.963Z,100949.28
2023-03-18T15:00:40.839Z,100952.84
2023-03-18T15:03:16.474Z,100952.88
2023-03-18T15:05:47.046Z,100948.41
2023-03-18T15:08:19.691Z,100950.22
2023-03-18T15:11:19.328Z,100940.47
2023-03-18T15:13:49.319Z,100938.69
2023-03-18T15:16:22.178Z,100936.94
2023-03-18T15:18:56.088Z,100936.97
2023-03-18T15:21:29.759Z,100950.28
2023-03-18T15:24:03.607Z,100945.84
2023-03-18T15:26:40.699Z,100936.97
2023-03-18T15:29:28.245Z,100936.09
2023-03-18T15:32:10.736Z,100946.75
2023-03-18T15:34:44.643Z,100943.19
2023-03-18T15:37:29.030Z,100943.19
2023-03-18T15:39:59.836Z,100944.94
2023-03-18T15:42:33.314Z,100945.84
2023-03-18T15:45:05.371Z,100946.75
2023-03-18T15:47:35.954Z,100944.09
2023-03-18T15:50:28.044Z,100944.06
2023-03-18T15:53:20.417Z,100946.72
2023-03-18T15:55:52.086Z,100944.94
2023-03-18T15:58:29.814Z,100945.81
2023-03-18T16:01:00.560Z,100944.00
2023-03-18T16:03:32.484Z,100944.91
2023-03-18T16:06:02.647Z,100947.50
2023-03-18T16:08:33.062Z,100943.94
2023-03-18T16:11:06.013Z,100943.91
2023-03-18T16:13:40.887Z,100936.84
2023-03-18T16:16:18.677Z,100936.81
2023-03-18T16:18:49.062Z,100939.44
2023-03-18T16:21:18.943Z,100951.84
2023-03-18T16:23:49.496Z,100949.16
2023-03-18T16:26:20.674Z,100956.25
2023-03-18T16:28:53.103Z,100959.75
2023-03-18T16:31:22.985Z,100955.31
2023-03-18T16:33:53.847Z,100954.41
2023-03-18T16:36:32.437Z,100953.47
2023-03-18T16:39:02.200Z,100950.81
2023-03-18T16:41:31.948Z,100941.03
2023-03-18T16:44:06.618Z,100946.28
2023-03-18T16:46:36.577Z,100946.25
2023-03-18T16:49:06.612Z,100955.06
2023-03-18T16:51:36.370Z,100952.38
2023-03-18T16:54:19.862Z,100952.31
2023-03-18T16:56:52.447Z,100954.94
2023-03-18T16:59:27.974Z,100962.91
2023-03-18T17:01:58.767Z,100962.88
2023-03-18T17:04:31.244Z,100961.97
2023-03-18T17:07:04.311Z,100969.06
2023-03-18T17:09:34.935Z,100972.56
2023-03-18T17:12:07.759Z,100968.06
2023-03-18T17:14:43.213Z,100974.22
2023-03-18T17:17:22.613Z,100983.91
2023-03-18T17:19:52.360Z,100981.16
2023-03-18T17:22:24.986Z,100985.50
2023-03-18T17:24:54.783Z,100990.69
2023-03-18T17:27:26.492Z,100979.94
2023-03-18T17:29:58.900Z,100985.13
2023-03-18T17:32:28.736Z,100983.25
2023-03-18T17:34:58.525Z,100990.19
2023-03-18T17:37:29.255Z,100987.38
2023-03-18T17:40:02.059Z,100991.63
2023-03-18T17:42:34.810Z,100995.94
2023-03-18T17:45:14.630Z,100988.75
2023-03-18T17:47:44.500Z,100985.09
2023-03-18T17:50:17.415Z,100987.66
2023-03-18T17:52:48.753Z,100996.41
2023-03-18T17:55:22.645Z,101006.94
2023-03-18T17:57:56.839Z,101014.81
2023-03-18T18:00:29.891Z,101012.91
2023-03-18T18:03:00.652Z,101013.69
2023-03-18T18:05:31.311Z,101008.28
2023-03-18T18:08:01.275Z,101003.75
2023-03-18T18:10:31.497Z,101010.72
2023-03-18T18:13:02.839Z,101015.97
2023-03-18T18:15:35.621Z,101004.38
2023-03-18T18:18:06.405Z,101014.00
2023-03-18T18:20:36.788Z,100998.91
2023-03-18T18:23:08.177Z,101009.38
2023-03-18T18:25:37.953Z,101002.13
2023-03-18T18:28:14.631Z,101002.81
2023-03-18T18:30:47.127Z,100992.97
2023-03-18T18:33:19.423Z,100990.09
2023-03-18T18:35:49.188Z,100989.06
2023-03-18T18:38:19.003Z,100995.13
2023-03-18T18:40:49.722Z,100987.91
2023-03-18T18:43:19.596Z,100990.50
2023-03-18T18:45:54.451Z,100985.97
2023-03-18T18:48:30.187Z,100993.75
2023-03-18T18:51:00.409Z,100983.94
2023-03-18T18:53:32.258Z,100990.00
2023-03-18T18:56:05.789Z,100981.94
2023-03-18T18:58:36.671Z,100981.84
2023-03-18T19:01:11.566Z,100986.13
2023-03-18T19:03:42.086Z,100987.75
2023-03-18T19:06:26.717Z,100991.13
2023-03-18T19:08:57.795Z,100986.56
2023-03-18T19:11:28.486Z,100985.53
2023-03-18T19:14:08.443Z,100995.13
2023-03-18T19:16:40.799Z,100992.38
2023-03-18T19:19:13.989Z,100987.88
2023-03-18T19:21:43.883Z,100991.25
2023-03-18T19:24:28.494Z,100984.09
2023-03-18T19:26:59.617Z,100991.13
2023-03-18T19:29:30.039Z,100987.53
2023-03-18T19:32:03.069Z,100984.84
2023-03-18T19:34:35.439Z,100987.47
2023-03-18T19:37:08.012Z,100985.66
2023-03-18T19:39:38.244Z,100988.22
2023-03-18T19:42:08.062Z,100990.81
2023-03-18T19:44:42.800Z,100985.41
2023-03-18T19:47:20.570Z,100990.59
2023-03-18T19:49:50.709Z,100995.75
2023-03-18T19:52:22.701Z,101001.78
2023-03-18T19:54:53.552Z,100999.03
2023-03-18T19:57:27.542Z,100995.41
2023-03-18T20:00:00.910Z,101003.25
2023-03-18T20:02:34.960Z,101005.78
2023-03-18T20:05:17.191Z,101003.00
2023-03-18T20:07:46.941Z,100992.28
2023-03-18T20:10:17.171Z,100999.19
2023-03-18T20:12:48.847Z,101002.56
2023-03-18T20:15:20.588Z,101007.78
2023-03-18T20:17:53.875Z,101010.31
2023-03-18T20:20:25.526Z,101005.66
2023-03-18T20:22:59.394Z,101003.66
2023-03-18T20:25:36.098Z,101005.22
2023-03-18T20:28:06.201Z,100993.59
2023-03-18T20:30:37.848Z,100998.69
2023-03-18T20:33:10.899Z,101000.22
2023-03-18T20:35:43.112Z,101012.28
2023-03-18T20:38:18.501Z,101006.97
2023-03-18T20:40:49.677Z,101011.31
2023-03-18T20:43:20.820Z,101013.84
2023-03-18T20:45:51.595Z,101009.34
2023-03-18T20:48:24.520Z,101014.56
2023-03-18T20:50:55.437Z,101015.41
2023-03-18T20:53:28.707Z,101010.09
2023-03-18T20:55:58.883Z,101015.31
2023-03-18T20:58:32.871Z,101014.34
2023-03-18T21:01:03.837Z,101016.91
2023-03-18T21:03:37.988Z,101010.69
2023-03-18T21:06:10.015Z,101018.50
2023-03-18T21:08:40.016Z,101015.78
2023-03-18T21:11:19.627Z,101017.41
2023-03-18T21:13:49.366Z,101021.69
2023-03-18T21:16:21.224Z,101021.59
2023-03-18T21:18:53.705Z,101024.16
2023-03-18T21:21:26.800Z,101024.13
2023-03-18T21:23:57.012Z,101026.69
2023-03-18T21:26:28.551Z,101019.59
2023-03-18T21:28:58.350Z,101019.50
2023-03-18T21:31:31.405Z,101015.91
2023-03-18T21:34:04.194Z,101008.81
2023-03-18T21:36:34.085Z,101008.75
2023-03-18T21:39:03.847Z,101007.78
2023-03-18T21:41:34.099Z,101005.06
2023-03-18T21:44:03.941Z,101011.13
2023-03-18T21:46:33.730Z,101009.25
2023-03-18T21:49:06.216Z,101008.25
2023-03-18T21:51:39.508Z,101005.50
2023-03-18T21:54:17.482Z,101005.44
2023-03-18T21:56:47.258Z,101002.81
2023-03-18T21:59:20.155Z,101001.03
2023-03-18T22:01:49.930Z,100994.88
2023-03-18T22:04:22.459Z,100994.03
2023-03-18T22:06:52.583Z,100988.75
2023-03-18T22:09:24.281Z,100975.66
2023-03-18T22:11:54.060Z,100984.38
2023-03-18T22:14:23.832Z,100987.94
2023-03-18T22:16:53.550Z,100974.78
2023-03-18T22:19:25.932Z,100975.69
2023-03-18T22:21:55.708Z,100975.75
2023-03-18T22:24:25.477Z,100970.56
2023-03-18T22:26:55.205Z,100963.56
2023-03-18T22:29:25.210Z,100962.75
2023-03-18T22:31:54.996Z,100976.88
2023-03-18T22:34:28.348Z,100975.16
2023-03-18T22:36:58.092Z,100981.47
2023-03-18T22:39:28.238Z,100984.22
2023-03-18T22:41:58.022Z,100979.00
2023-03-18T22:44:28.209Z,100979.88
2023-03-18T22:46:58.001Z,100983.53
2023-03-18T22:49:30.422Z,100990.63
2023-03-18T22:52:00.272Z,100985.34
2023-03-18T22:54:33.786Z,100988.97
2023-03-18T22:57:04.339Z,100983.81
2023-03-18T22:59:34.116Z,100982.16
2023-03-18T23:02:03.998Z,100983.16
2023-03-18T23:04:36.476Z,100982.41
2023-03-18T23:07:06.445Z,100977.22
2023-03-18T23:09:44.238Z,100984.41
2023-03-18T23:12:20.600Z,100983.59
2023-03-18T23:14:51.117Z,100982.81
2023-03-18T23:17:22.474Z,100988.16
2023-03-18T23:19:55.544Z,100987.34
2023-03-18T23:22:28.650Z,100986.59
2023-03-18T23:24:59.266Z,100988.44
2023-03-18T23:27:30.123Z,100987.53
2023-03-18T23:29:59.871Z,100984.09
2023-03-18T23:32:31.160Z,100984.19
2023-03-18T23:35:03.732Z,100987.78
2023-03-18T23:37:33.476Z,100978.16
2023-03-18T23:40:03.446Z,100975.63
2023-03-18T23:42:33.198Z,100974.75
2023-03-18T23:45:04.173Z,100968.69
2023-03-18T23:47:33.946Z,100968.75
2023-03-18T23:50:06.810Z,100967.06
2023-03-18T23:52:37.016Z,100973.22
2023-03-18T23:55:18.466Z,100973.28
2023-03-18T23:57:52.268Z,100967.13
